LNI813 WAAA-WAFO
Flight info
| Callsign | LNI813 |
|---|---|
| Flight time | 0h 49m |
| Altitude | 23000 |
| Route | VENRU W32 DIOLA |
| Aircraft | B738/M-SDE2E3FGHIRWXY/LB1 |
Departure
| Time | 2026-05-06 07:36 |
|---|---|
| Airport | Sultan Hasanuddin International Airport (WAAA) |
Arrival
| Time | 2026-05-06 08:25 |
|---|---|
| Airport | Maleo Airport (WAFO) |
| Time | Latitude | Longitude | Altitude | Speed | Heading |
|---|---|---|---|---|---|
| 2026-05-06 06:51 | -5.07660 | 119.54799 | 38 ft | 0 kts | 300° |
| 2026-05-06 07:26 | -5.07669 | 119.54815 | 40 ft | 4 kts | 300° |
| 2026-05-06 07:27 | -5.07683 | 119.54838 | 40 ft | 4 kts | 300° |
| 2026-05-06 07:27 | -5.07694 | 119.54858 | 40 ft | 4 kts | 290° |
| 2026-05-06 07:27 | -5.07697 | 119.54882 | 39 ft | 4 kts | 239° |
| 2026-05-06 07:27 | -5.07678 | 119.54898 | 40 ft | 4 kts | 204° |
| 2026-05-06 07:28 | -5.07659 | 119.54906 | 40 ft | 0 kts | 210° |
| 2026-05-06 07:31 | -5.07670 | 119.54900 | 39 ft | 5 kts | 210° |
| 2026-05-06 07:31 | -5.07716 | 119.54873 | 40 ft | 11 kts | 210° |
| 2026-05-06 07:31 | -5.07794 | 119.54828 | 40 ft | 15 kts | 210° |
| 2026-05-06 07:32 | -5.07895 | 119.54769 | 40 ft | 17 kts | 211° |
| 2026-05-06 07:32 | -5.08000 | 119.54741 | 40 ft | 16 kts | 147° |
| 2026-05-06 07:32 | -5.08060 | 119.54833 | 39 ft | 16 kts | 133° |
| 2026-05-06 07:32 | -5.08156 | 119.54819 | 40 ft | 15 kts | 211° |
| 2026-05-06 07:33 | -5.08243 | 119.54768 | 39 ft | 15 kts | 210° |
| 2026-05-06 07:33 | -5.08341 | 119.54711 | 37 ft | 18 kts | 210° |
| 2026-05-06 07:33 | -5.08457 | 119.54645 | 40 ft | 21 kts | 210° |
| 2026-05-06 07:33 | -5.08591 | 119.54568 | 39 ft | 23 kts | 210° |
| 2026-05-06 07:34 | -5.08738 | 119.54483 | 40 ft | 25 kts | 210° |
| 2026-05-06 07:34 | -5.08882 | 119.54400 | 39 ft | 23 kts | 210° |
| 2026-05-06 07:34 | -5.09018 | 119.54322 | 39 ft | 22 kts | 210° |
| 2026-05-06 07:34 | -5.09135 | 119.54276 | 40 ft | 12 kts | 172° |
| 2026-05-06 07:35 | -5.09174 | 119.54307 | 39 ft | 7 kts | 122° |
| 2026-05-06 07:35 | -5.09197 | 119.54348 | 41 ft | 7 kts | 120° |
| 2026-05-06 07:35 | -5.09211 | 119.54398 | 41 ft | 10 kts | 76° |
| 2026-05-06 07:35 | -5.09116 | 119.54470 | 42 ft | 26 kts | 30° |
| 2026-05-06 07:36 | -5.08724 | 119.54697 | 42 ft | 106 kts | 31° |
| 2026-05-06 07:36 | -5.07869 | 119.55193 | 57 ft | 173 kts | 29° |
| 2026-05-06 07:36 | -5.06790 | 119.55837 | 847 ft | 177 kts | 27° |
| 2026-05-06 07:36 | -5.05638 | 119.56205 | 1811 ft | 182 kts | 359° |
| 2026-05-06 07:37 | -5.04336 | 119.55888 | 2175 ft | 205 kts | 338° |
| 2026-05-06 07:37 | -5.02912 | 119.55526 | 2515 ft | 224 kts | 358° |
| 2026-05-06 07:37 | -5.01294 | 119.55600 | 2895 ft | 238 kts | 5° |
| 2026-05-06 07:37 | -4.99601 | 119.55722 | 3335 ft | 255 kts | 4° |
| 2026-05-06 07:38 | -4.97751 | 119.55797 | 3837 ft | 269 kts | 2° |
| 2026-05-06 07:38 | -4.95868 | 119.55837 | 4599 ft | 275 kts | 5° |
| 2026-05-06 07:38 | -4.93952 | 119.55858 | 5326 ft | 281 kts | 4° |
| 2026-05-06 07:38 | -4.91982 | 119.55864 | 6133 ft | 284 kts | 3° |
| 2026-05-06 07:39 | -4.89993 | 119.55920 | 6908 ft | 284 kts | 13° |
| 2026-05-06 07:39 | -4.88219 | 119.56648 | 7645 ft | 279 kts | 38° |
| 2026-05-06 07:39 | -4.86702 | 119.57869 | 8405 ft | 280 kts | 43° |
| 2026-05-06 07:39 | -4.85214 | 119.59171 | 9136 ft | 284 kts | 44° |
| 2026-05-06 07:40 | -4.83722 | 119.60495 | 9829 ft | 289 kts | 44° |
| 2026-05-06 07:40 | -4.82203 | 119.61843 | 10403 ft | 297 kts | 44° |
| 2026-05-06 07:40 | -4.81152 | 119.62775 | 10547 ft | 312 kts | 44° |
| 2026-05-06 07:40 | -4.78908 | 119.64763 | 11031 ft | 331 kts | 43° |
| 2026-05-06 07:41 | -4.77185 | 119.66276 | 11688 ft | 333 kts | 44° |
| 2026-05-06 07:41 | -4.75422 | 119.67822 | 12250 ft | 339 kts | 44° |
| 2026-05-06 07:41 | -4.74244 | 119.68854 | 12718 ft | 340 kts | 44° |
| 2026-05-06 07:41 | -4.72446 | 119.70426 | 13328 ft | 345 kts | 43° |
| 2026-05-06 07:42 | -4.70613 | 119.72027 | 13902 ft | 349 kts | 42° |
| 2026-05-06 07:42 | -4.68179 | 119.74150 | 14729 ft | 351 kts | 42° |
| 2026-05-06 07:42 | -4.66928 | 119.75241 | 15062 ft | 354 kts | 43° |
| 2026-05-06 07:42 | -4.65088 | 119.76843 | 15652 ft | 355 kts | 43° |
| 2026-05-06 07:43 | -4.63211 | 119.78487 | 16190 ft | 359 kts | 41° |
| 2026-05-06 07:43 | -4.61322 | 119.80138 | 16778 ft | 360 kts | 43° |
| 2026-05-06 07:43 | -4.59411 | 119.81802 | 17240 ft | 366 kts | 42° |
| 2026-05-06 07:43 | -4.57486 | 119.83480 | 17944 ft | 364 kts | 43° |
| 2026-05-06 07:44 | -4.55586 | 119.85135 | 18425 ft | 368 kts | 42° |
| 2026-05-06 07:44 | -4.53644 | 119.86824 | 18970 ft | 368 kts | 42° |
| 2026-05-06 07:44 | -4.51698 | 119.88517 | 19418 ft | 371 kts | 42° |
| 2026-05-06 07:44 | -4.49778 | 119.90196 | 19960 ft | 371 kts | 43° |
| 2026-05-06 07:45 | -4.47804 | 119.91920 | 20311 ft | 377 kts | 42° |
| 2026-05-06 07:45 | -4.45813 | 119.93657 | 20743 ft | 379 kts | 42° |
| 2026-05-06 07:45 | -4.43837 | 119.95383 | 21131 ft | 383 kts | 42° |
| 2026-05-06 07:45 | -4.41808 | 119.97150 | 21565 ft | 385 kts | 42° |
| 2026-05-06 07:46 | -4.39791 | 119.98904 | 21935 ft | 389 kts | 42° |
| 2026-05-06 07:46 | -4.37730 | 120.00698 | 22319 ft | 392 kts | 43° |
| 2026-05-06 07:46 | -4.35657 | 120.02506 | 22675 ft | 396 kts | 42° |
| 2026-05-06 07:46 | -4.33585 | 120.04313 | 22826 ft | 394 kts | 42° |
| 2026-05-06 07:47 | -4.31503 | 120.06127 | 22827 ft | 400 kts | 42° |
| 2026-05-06 07:47 | -4.29404 | 120.07955 | 22837 ft | 408 kts | 42° |
| 2026-05-06 07:47 | -4.27239 | 120.09843 | 22839 ft | 415 kts | 43° |
| 2026-05-06 07:47 | -4.25051 | 120.11749 | 22832 ft | 416 kts | 42° |
| 2026-05-06 07:48 | -4.22853 | 120.13661 | 22834 ft | 419 kts | 42° |
| 2026-05-06 07:48 | -4.20653 | 120.15577 | 22811 ft | 418 kts | 43° |
| 2026-05-06 07:48 | -4.18453 | 120.17492 | 22810 ft | 418 kts | 42° |
| 2026-05-06 07:48 | -4.16254 | 120.19406 | 22817 ft | 418 kts | 42° |
| 2026-05-06 07:49 | -4.14079 | 120.21298 | 22816 ft | 418 kts | 43° |
| 2026-05-06 07:49 | -4.11886 | 120.23208 | 22819 ft | 418 kts | 42° |
| 2026-05-06 07:49 | -4.09691 | 120.25119 | 22817 ft | 418 kts | 42° |
| 2026-05-06 07:49 | -4.07496 | 120.27031 | 22813 ft | 418 kts | 42° |
| 2026-05-06 07:50 | -4.05297 | 120.28945 | 22825 ft | 418 kts | 43° |
| 2026-05-06 07:50 | -4.03129 | 120.30833 | 22826 ft | 418 kts | 42° |
| 2026-05-06 07:50 | -4.00929 | 120.32748 | 22826 ft | 418 kts | 42° |
| 2026-05-06 07:50 | -3.98731 | 120.34661 | 22821 ft | 418 kts | 42° |
| 2026-05-06 07:51 | -3.96534 | 120.36573 | 22823 ft | 418 kts | 42° |
| 2026-05-06 07:51 | -3.94333 | 120.38488 | 22828 ft | 418 kts | 42° |
| 2026-05-06 07:51 | -3.92134 | 120.40404 | 22821 ft | 418 kts | 42° |
| 2026-05-06 07:51 | -3.89956 | 120.42299 | 22826 ft | 418 kts | 42° |
| 2026-05-06 07:52 | -3.87749 | 120.44219 | 22826 ft | 419 kts | 42° |
| 2026-05-06 07:52 | -3.85545 | 120.46135 | 22824 ft | 419 kts | 42° |
| 2026-05-06 07:52 | -3.83337 | 120.48055 | 22826 ft | 419 kts | 42° |
| 2026-05-06 07:52 | -3.81156 | 120.49952 | 22829 ft | 419 kts | 42° |
| 2026-05-06 07:53 | -3.78954 | 120.51866 | 22820 ft | 419 kts | 42° |
| 2026-05-06 07:53 | -3.76749 | 120.53784 | 22821 ft | 419 kts | 42° |
| 2026-05-06 07:53 | -3.74541 | 120.55704 | 22823 ft | 419 kts | 42° |
| 2026-05-06 07:53 | -3.72369 | 120.57591 | 22825 ft | 419 kts | 42° |
| 2026-05-06 07:54 | -3.70166 | 120.59507 | 22819 ft | 419 kts | 42° |
| 2026-05-06 07:54 | -3.67962 | 120.61424 | 22820 ft | 418 kts | 42° |
| 2026-05-06 07:54 | -3.65765 | 120.63335 | 22825 ft | 418 kts | 42° |
| 2026-05-06 07:54 | -3.63562 | 120.65251 | 22829 ft | 418 kts | 42° |
| 2026-05-06 07:55 | -3.61395 | 120.67135 | 22828 ft | 418 kts | 42° |
| 2026-05-06 07:55 | -3.59190 | 120.69051 | 22830 ft | 418 kts | 43° |
| 2026-05-06 07:55 | -3.56995 | 120.70959 | 22828 ft | 418 kts | 43° |
| 2026-05-06 07:55 | -3.54790 | 120.72873 | 22822 ft | 418 kts | 43° |
| 2026-05-06 07:56 | -3.52618 | 120.74761 | 22836 ft | 418 kts | 43° |
| 2026-05-06 07:56 | -3.50424 | 120.76668 | 22835 ft | 418 kts | 43° |
| 2026-05-06 07:56 | -3.48214 | 120.78588 | 22834 ft | 418 kts | 43° |
| 2026-05-06 07:56 | -3.46013 | 120.80501 | 22837 ft | 418 kts | 43° |
| 2026-05-06 07:57 | -3.43835 | 120.82393 | 22838 ft | 418 kts | 43° |
| 2026-05-06 07:57 | -3.41641 | 120.84300 | 22832 ft | 418 kts | 43° |
| 2026-05-06 07:57 | -3.39434 | 120.86217 | 22834 ft | 418 kts | 43° |
| 2026-05-06 07:57 | -3.37237 | 120.88126 | 22836 ft | 418 kts | 43° |
| 2026-05-06 07:58 | -3.35034 | 120.90040 | 22836 ft | 418 kts | 43° |
| 2026-05-06 07:58 | -3.32868 | 120.91921 | 22835 ft | 417 kts | 43° |
| 2026-05-06 07:58 | -3.30665 | 120.93834 | 22835 ft | 417 kts | 43° |
| 2026-05-06 07:58 | -3.28466 | 120.95745 | 22839 ft | 417 kts | 43° |
| 2026-05-06 07:59 | -3.26268 | 120.97653 | 22840 ft | 417 kts | 43° |
| 2026-05-06 07:59 | -3.24104 | 120.99532 | 22839 ft | 417 kts | 43° |
| 2026-05-06 07:59 | -3.21902 | 121.01445 | 22836 ft | 416 kts | 43° |
| 2026-05-06 07:59 | -3.19714 | 121.03344 | 22841 ft | 416 kts | 43° |
| 2026-05-06 08:00 | -3.17523 | 121.05247 | 22834 ft | 416 kts | 43° |
| 2026-05-06 08:00 | -3.15326 | 121.07156 | 22427 ft | 421 kts | 43° |
| 2026-05-06 08:00 | -3.13135 | 121.09059 | 21959 ft | 421 kts | 43° |
| 2026-05-06 08:00 | -3.10923 | 121.10978 | 21529 ft | 416 kts | 43° |
| 2026-05-06 08:01 | -3.08731 | 121.12861 | 21170 ft | 410 kts | 41° |
| 2026-05-06 08:01 | -3.06538 | 121.14680 | 20859 ft | 409 kts | 41° |
| 2026-05-06 08:01 | -3.04328 | 121.16483 | 20523 ft | 410 kts | 40° |
| 2026-05-06 08:01 | -3.02115 | 121.18282 | 20168 ft | 410 kts | 40° |
| 2026-05-06 08:02 | -2.99926 | 121.20064 | 19788 ft | 410 kts | 40° |
| 2026-05-06 08:02 | -2.97716 | 121.21867 | 19357 ft | 408 kts | 40° |
| 2026-05-06 08:02 | -2.95528 | 121.23657 | 18899 ft | 404 kts | 40° |
| 2026-05-06 08:02 | -2.93359 | 121.25434 | 18467 ft | 401 kts | 40° |
| 2026-05-06 08:03 | -2.91222 | 121.27187 | 18015 ft | 399 kts | 40° |
| 2026-05-06 08:03 | -2.89057 | 121.28964 | 17501 ft | 395 kts | 40° |
| 2026-05-06 08:03 | -2.86969 | 121.30678 | 17012 ft | 391 kts | 40° |
| 2026-05-06 08:03 | -2.84868 | 121.32401 | 16515 ft | 388 kts | 40° |
| 2026-05-06 08:04 | -2.82779 | 121.34115 | 16035 ft | 385 kts | 40° |
| 2026-05-06 08:04 | -2.80706 | 121.35816 | 15556 ft | 385 kts | 40° |
| 2026-05-06 08:04 | -2.78634 | 121.37517 | 15089 ft | 396 kts | 40° |
| 2026-05-06 08:04 | -2.76487 | 121.39279 | 14556 ft | 402 kts | 40° |
| 2026-05-06 08:05 | -2.74322 | 121.41055 | 14035 ft | 401 kts | 40° |
| 2026-05-06 08:05 | -2.72168 | 121.42821 | 13513 ft | 398 kts | 41° |
| 2026-05-06 08:05 | -2.70025 | 121.44577 | 12926 ft | 396 kts | 41° |
| 2026-05-06 08:05 | -2.67898 | 121.46320 | 12358 ft | 394 kts | 41° |
| 2026-05-06 08:06 | -2.65781 | 121.48056 | 11798 ft | 391 kts | 41° |
| 2026-05-06 08:06 | -2.63697 | 121.49766 | 11250 ft | 391 kts | 41° |
| 2026-05-06 08:06 | -2.61598 | 121.51488 | 10716 ft | 388 kts | 41° |
| 2026-05-06 08:06 | -2.59524 | 121.53189 | 10268 ft | 382 kts | 40° |
| 2026-05-06 08:07 | -2.57473 | 121.54871 | 10137 ft | 375 kts | 41° |
| 2026-05-06 08:07 | -2.55496 | 121.56491 | 10041 ft | 357 kts | 41° |
| 2026-05-06 08:07 | -2.53666 | 121.57991 | 10015 ft | 331 kts | 41° |
| 2026-05-06 08:07 | -2.51940 | 121.59404 | 10010 ft | 309 kts | 41° |
| 2026-05-06 08:08 | -2.50333 | 121.60719 | 10003 ft | 288 kts | 41° |
| 2026-05-06 08:08 | -2.48831 | 121.61951 | 9997 ft | 268 kts | 41° |
| 2026-05-06 08:08 | -2.47432 | 121.63102 | 10031 ft | 261 kts | 42° |
| 2026-05-06 08:08 | -2.46027 | 121.64255 | 10021 ft | 260 kts | 42° |
| 2026-05-06 08:09 | -2.44621 | 121.65409 | 10026 ft | 261 kts | 41° |
| 2026-05-06 08:09 | -2.43221 | 121.66559 | 10032 ft | 261 kts | 42° |
| 2026-05-06 08:09 | -2.41815 | 121.67711 | 10026 ft | 261 kts | 41° |
| 2026-05-06 08:09 | -2.40443 | 121.68867 | 10031 ft | 260 kts | 43° |
| 2026-05-06 08:10 | -2.39066 | 121.70061 | 10038 ft | 261 kts | 43° |
| 2026-05-06 08:10 | -2.37691 | 121.71253 | 10030 ft | 260 kts | 43° |
| 2026-05-06 08:10 | -2.36340 | 121.72425 | 10036 ft | 261 kts | 43° |
| 2026-05-06 08:10 | -2.34955 | 121.73623 | 10036 ft | 262 kts | 44° |
| 2026-05-06 08:11 | -2.33575 | 121.74818 | 10033 ft | 262 kts | 44° |
| 2026-05-06 08:11 | -2.32183 | 121.76024 | 9841 ft | 268 kts | 44° |
| 2026-05-06 08:11 | -2.30783 | 121.77235 | 9608 ft | 267 kts | 44° |
| 2026-05-06 08:11 | -2.29383 | 121.78444 | 9357 ft | 265 kts | 44° |
| 2026-05-06 08:12 | -2.27993 | 121.79645 | 9098 ft | 263 kts | 43° |
| 2026-05-06 08:12 | -2.26607 | 121.80833 | 8842 ft | 261 kts | 41° |
| 2026-05-06 08:12 | -2.25047 | 121.81732 | 8609 ft | 263 kts | 24° |
| 2026-05-06 08:12 | -2.23318 | 121.82392 | 8583 ft | 269 kts | 23° |
| 2026-05-06 08:13 | -2.21534 | 121.83068 | 8369 ft | 276 kts | 24° |
| 2026-05-06 08:13 | -2.19763 | 121.83765 | 8121 ft | 275 kts | 24° |
| 2026-05-06 08:13 | -2.17993 | 121.84475 | 7873 ft | 273 kts | 24° |
| 2026-05-06 08:13 | -2.16234 | 121.85186 | 7633 ft | 271 kts | 25° |
| 2026-05-06 08:14 | -2.14496 | 121.85893 | 7385 ft | 269 kts | 24° |
| 2026-05-06 08:14 | -2.12790 | 121.86584 | 7144 ft | 266 kts | 24° |
| 2026-05-06 08:14 | -2.11027 | 121.87159 | 6889 ft | 268 kts | 6° |
| 2026-05-06 08:14 | -2.09207 | 121.86875 | 6657 ft | 267 kts | 335° |
| 2026-05-06 08:15 | -2.07670 | 121.85854 | 6447 ft | 264 kts | 319° |
| 2026-05-06 08:15 | -2.06293 | 121.84638 | 6212 ft | 262 kts | 317° |
| 2026-05-06 08:15 | -2.04959 | 121.83429 | 5967 ft | 261 kts | 317° |
| 2026-05-06 08:15 | -2.03617 | 121.82213 | 5722 ft | 259 kts | 317° |
| 2026-05-06 08:16 | -2.02273 | 121.81007 | 5482 ft | 258 kts | 317° |
| 2026-05-06 08:16 | -2.00748 | 121.80096 | 5215 ft | 258 kts | 349° |
| 2026-05-06 08:16 | -1.99015 | 121.80149 | 5043 ft | 248 kts | 21° |
| 2026-05-06 08:16 | -1.97517 | 121.80941 | 4858 ft | 242 kts | 43° |
| 2026-05-06 08:17 | -1.96359 | 121.82121 | 4696 ft | 242 kts | 51° |
| 2026-05-06 08:17 | -1.95231 | 121.83390 | 4536 ft | 244 kts | 52° |
| 2026-05-06 08:17 | -1.94383 | 121.84817 | 4343 ft | 237 kts | 79° |
| 2026-05-06 08:17 | -1.94329 | 121.86407 | 4235 ft | 223 kts | 102° |
| 2026-05-06 08:18 | -1.94865 | 121.87782 | 4086 ft | 209 kts | 126° |
| 2026-05-06 08:18 | -1.95853 | 121.88767 | 4012 ft | 195 kts | 148° |
| 2026-05-06 08:18 | -1.97105 | 121.89269 | 4002 ft | 194 kts | 169° |
| 2026-05-06 08:18 | -1.98460 | 121.89257 | 4015 ft | 198 kts | 189° |
| 2026-05-06 08:19 | -1.99781 | 121.88788 | 3938 ft | 206 kts | 207° |
| 2026-05-06 08:19 | -2.00846 | 121.87836 | 3814 ft | 209 kts | 225° |
| 2026-05-06 08:19 | -2.01824 | 121.86754 | 3702 ft | 209 kts | 224° |
| 2026-05-06 08:19 | -2.02795 | 121.85678 | 3567 ft | 207 kts | 224° |
| 2026-05-06 08:20 | -2.03754 | 121.84632 | 3458 ft | 202 kts | 223° |
| 2026-05-06 08:20 | -2.04706 | 121.83585 | 3275 ft | 205 kts | 224° |
| 2026-05-06 08:20 | -2.05654 | 121.82527 | 3042 ft | 206 kts | 225° |
| 2026-05-06 08:20 | -2.06595 | 121.81466 | 2866 ft | 196 kts | 225° |
| 2026-05-06 08:21 | -2.07462 | 121.80488 | 2882 ft | 183 kts | 224° |
| 2026-05-06 08:21 | -2.08315 | 121.79531 | 2869 ft | 187 kts | 226° |
| 2026-05-06 08:21 | -2.09186 | 121.78555 | 2867 ft | 187 kts | 225° |
| 2026-05-06 08:21 | -2.10049 | 121.77586 | 2698 ft | 188 kts | 227° |
| 2026-05-06 08:22 | -2.10922 | 121.76608 | 2472 ft | 187 kts | 227° |
| 2026-05-06 08:22 | -2.11777 | 121.75649 | 2273 ft | 184 kts | 227° |
| 2026-05-06 08:22 | -2.12627 | 121.74697 | 2007 ft | 182 kts | 227° |
| 2026-05-06 08:22 | -2.13429 | 121.73796 | 1828 ft | 169 kts | 227° |
| 2026-05-06 08:23 | -2.14180 | 121.72955 | 1609 ft | 158 kts | 228° |
| 2026-05-06 08:23 | -2.14900 | 121.72144 | 1384 ft | 153 kts | 230° |
| 2026-05-06 08:23 | -2.15632 | 121.71323 | 1193 ft | 161 kts | 229° |
| 2026-05-06 08:23 | -2.16356 | 121.70508 | 966 ft | 153 kts | 229° |
| 2026-05-06 08:24 | -2.17055 | 121.69720 | 785 ft | 153 kts | 229° |
| 2026-05-06 08:24 | -2.17766 | 121.68928 | 601 ft | 150 kts | 229° |
| 2026-05-06 08:24 | -2.18464 | 121.68137 | 408 ft | 153 kts | 230° |
| 2026-05-06 08:24 | -2.19177 | 121.67346 | 166 ft | 151 kts | 230° |
| 2026-05-06 08:25 | -2.19858 | 121.66572 | 21 ft | 138 kts | 229° |
| 2026-05-06 08:25 | -2.20369 | 121.65999 | 18 ft | 80 kts | 229° |
| 2026-05-06 08:25 | -2.20500 | 121.65849 | 19 ft | 20 kts | 228° |
| 2026-05-06 08:25 | -2.20537 | 121.65838 | 18 ft | 5 kts | 43° |
| 2026-05-06 08:26 | -2.20506 | 121.65858 | 22 ft | 10 kts | 34° |
| 2026-05-06 08:26 | -2.20442 | 121.65919 | 17 ft | 15 kts | 46° |
| 2026-05-06 08:26 | -2.20366 | 121.66005 | 19 ft | 17 kts | 47° |
| 2026-05-06 08:26 | -2.20253 | 121.66133 | 20 ft | 20 kts | 49° |
| 2026-05-06 08:27 | -2.20188 | 121.66205 | 20 ft | 22 kts | 49° |
| 2026-05-06 08:27 | -2.20094 | 121.66311 | 20 ft | 11 kts | 47° |
| 2026-05-06 08:27 | -2.20078 | 121.66339 | 20 ft | 3 kts | 113° |
| 2026-05-06 08:27 | -2.20118 | 121.66378 | 20 ft | 11 kts | 139° |
| 2026-05-06 08:28 | -2.20165 | 121.66419 | 20 ft | 3 kts | 139° |
| 2026-05-06 08:28 | -2.20168 | 121.66422 | 18 ft | 1 kts | 139° |
| 2026-05-06 08:28 | -2.20171 | 121.66424 | 18 ft | 1 kts | 139° |
| 2026-05-06 08:28 | -2.20179 | 121.66432 | 21 ft | 2 kts | 139° |
| 2026-05-06 08:29 | -2.20192 | 121.66443 | 18 ft | 2 kts | 139° |
| 2026-05-06 08:29 | -2.20206 | 121.66453 | 20 ft | 3 kts | 150° |
| 2026-05-06 08:29 | -2.20228 | 121.66452 | 23 ft | 4 kts | 203° |
| 2026-05-06 08:29 | -2.20242 | 121.66439 | 22 ft | 1 kts | 203° |
| 2026-05-06 08:30 | -2.20250 | 121.66443 | 18 ft | 2 kts | 159° |
| 2026-05-06 08:30 | -2.20262 | 121.66450 | 22 ft | 2 kts | 141° |
| 2026-05-06 08:30 | -2.20272 | 121.66459 | 18 ft | 2 kts | 138° |
| 2026-05-06 08:30 | -2.20278 | 121.66465 | 18 ft | 1 kts | 138° |
| 2026-05-06 08:31 | -2.20279 | 121.66466 | 18 ft | 0 kts | 138° |